KOCH/OCH METAR and TAF weather

Enter ICAO airport designator
Station Type Date Time Source
KOCH METAR 2022/06/26 06:56 UTC NOAA

KOCH 260656Z AUTO 00000KT 10SM CLR 24/19 A3003 RMK AO2 SLP167 T02390189


Station Type Date Time Source
KOCH Decoded METAR 2022/06/26 06:56 UTC NOAA

Nacogdoches, A L Mangham Jr. Regional Airport, TX, United States (KOCH) 31-35N 094-43W
Jun 26, 2022 - 02:56 AM EDT / 2022.06.26 0656 UTC
Wind: Calm:0
Visibility: 10 mile(s):0
Sky conditions: clear
Temperature: 75.0 F (23.9 C)
Dew Point: 66.0 F (18.9 C)
Relative Humidity: 73%
Pressure (altimeter): 30.03 in. Hg (1016 hPa)
ob: KOCH 260656Z AUTO 00000KT 10SM CLR 24/19 A3003 RMK AO2 SLP167 T02390189
cycle: 7

Station Type Date Time Source
KOCH TAF UTC NOAA

Error!

Example: see airport list